Niagara Falls, NY (14304)

11:45 PM EDT on May 23, 2015 (GMT -0400)
Radio KF2XN | | Change Station
CLOSE
Current Station
Personal Weather Station
Location: Grand Island, NY
Elevation: 597 ft
Nearby Weather Stations

Elev 597 ft 43.04 °N, 78.95 °W | Updated 5 minutes ago

Partly Cloudy
Partly Cloudy
52.1 °F
Feels Like 52.1 °F
N
4.0
Wind Variable Wind from SW
Gusts 6.0 mph

Today
High -- | Low -- °F
--% Chance of Precip.
Yesterday
High -- | Low -- °F
Precip. -- in
5:45 AM 8:40 PM
Waxing Crescent, 35% visible
Pressure 30.30 in
Visibility 10.0 miles
Clouds Few 25000 ft
Dew Point 35 °F
Humidity 52%
Rainfall 0.00 in
Snow Depth Not available.
UV 0 out of 12
Pollen 9.30 out of 12
Air Quality Not available.
Flu Activity Widespread
METAR KIAG 240253Z 21009KT 10SM FEW250 12/M02 A3028 RMK AO2 SLP258 LAST T01171017 50000

More Conditions Fewer Conditions

Pressure 30.30 in
Visibility 10.0 miles
Clouds Few 25000 ft
Dew Point 35 °F
Humidity 52%
Rainfall 0.00 in
Snow Depth Not available.
UV 0 out of 12
Pollen 9.30 out of 12
Air Quality Not available.
Flu Activity Widespread
METAR KIAG 240253Z 21009KT 10SM FEW250 12/M02 A3028 RMK AO2 SLP258 LAST T01171017 50000

More Conditions Fewer Conditions

10-Day Weather Forecast

Almanac

Astronomy

May. 23, 2015 Rise Set
Actual Time
Civil Twilight
Nautical Twilight
Astronomical Twilight
Moon
Length of Visible Light
Length of Day
Tomorrow will be .
, % of the Moon is Illuminated

Today's Extremes

State Highs State Lows

Community

WunderPhotos

Upload Photos

1,823,678 photos uploaded!

WunderBlogs® & News

Nearby

Air Quality

  Air Quality AQ Index Pollutant
Not available.

Snow Depth

Station Depth Elevation

Earthquake Activity

City Distance Mag. Time & Date
Minimum magnitude displayed is 2.5.

Coastal Water Temperatures

Place Temperature

Stations

Nearby Weather Stations

Station Location Temp. Windchill Dew Point Humidity Wind Precip. Elev Updated Type